Flight Track Log - Related Links

Times and Time Zones

All times are in EDT time to prevent confusion due to time zone crossing. See the ASH3770 flight status page for this flight to view local times or setup timezone preferences in your user account.

Time Position Orientation Groundspeed Altitude Reporting Facility
EDT Latitude Longitude Course Direction KTS MPH feet Rate Location/Type
Fri 05:20:40 PM 38.9519 -77.5294 290° West 182 209 2,200  Level Washington Center
Fri 05:20:57 PM 38.9667 -77.5500 313° West 202 232 2,900 2,331 Climbing Potomac TRACON
Fri 05:22:41 PM 39.0458 -77.6522 315° West 273 314 6,900 2,744 Climbing Washington Center
Fri 05:23:00 PM 39.2931 -77.5432 344° North  Level FlightAware Approximate
Fri 05:23:41 PM 39.1117 -77.6969 332° Northwest 268 308 10,400  Level Washington Center
Fri 05:24:00 PM 39.3838 -77.5773 344° North  Level FlightAware Approximate
Fri 05:24:39 PM 39.1883 -77.7233 345° North 268 308 12,200  Level Washington Center
Fri 05:25:00 PM 39.4596 -77.6169 290° West  Level FlightAware Approximate
Fri 05:25:40 PM 39.2753 -77.7581 343° North 299 344 13,900  Level Washington Center
Fri 05:26:40 PM 39.3706 -77.7931 344° North 326 375 16,100 1,934 Climbing Washington Center
Fri 05:27:41 PM 39.4678 -77.8308 343° North 345 397 17,800 1,239 Climbing Washington Center
Fri 05:29:44 PM 39.5969 -78.0453 308° West 391 450 19,900 721 Climbing Cleveland Center
Fri 05:30:44 PM 39.6375 -78.1811 291° West 398 458 20,000 50 Climbing Cleveland Center
Fri 05:31:45 PM 39.6756 -78.3175 290° West 403 464 20,000  Level Cleveland Center
Fri 05:32:44 PM 39.7181 -78.4564 292° West 409 471 20,000  Level Cleveland Center
Fri 05:33:45 PM 39.7619 -78.5900 293° West 409 471 20,000  Level Cleveland Center
Fri 05:34:45 PM 39.8144 -78.7289 296° West 399 459 20,000  Level Cleveland Center
Fri 05:35:45 PM 39.8644 -78.8575 297° West 399 459 20,000  Level Cleveland Center
Fri 05:36:45 PM 39.9206 -78.9942 298° West 404 465 20,000 -958 Level Cleveland Center
Fri 05:37:44 PM 39.9725 -79.1283 297° West 404 465 18,100 -2,067 Descending Cleveland Center
Fri 05:38:44 PM 40.0219 -79.2519 298° West 399 459 15,900 -2,083 Descending Cleveland Center
Fri 05:39:45 PM 40.0692 -79.3758 297° West 394 453 13,900 -1,785 Descending Cleveland Center
Fri 05:40:45 PM 40.1161 -79.5000 296° West 394 453 12,300 -1,513 Descending Cleveland Center
Fri 05:41:44 PM 40.1633 -79.6242 296° West 383 441 10,900 -1,160 Descending Cleveland Center
Fri 05:42:44 PM 40.2142 -79.7403 300° West 373 429 10,000 -750 Descending Cleveland Center
Fri 05:43:44 PM 40.2606 -79.8378 302° West 347 399 9,400 -1,400 Descending Cleveland Center
Fri 05:44:44 PM 40.3008 -79.9217 302° West 307 353 7,200 -2,083 Descending Cleveland Center
Fri 05:45:45 PM 40.3431 -80.0056 303° West 282 325 5,200 -1,587 Descending Cleveland Center
Fri 05:46:45 PM 40.3831 -80.0817 305° West 271 312 4,000 -1,200 Descending Cleveland Center

Login

Don't have an account? Register now (free) for customized features, flight alerts, and more!